createdAt,value
2019-05-26T00:02:10.187Z,15.60
2019-05-26T00:04:40.957Z,15.60
2019-05-26T00:07:12.049Z,15.60
2019-05-26T00:09:41.986Z,15.60
2019-05-26T00:12:15.733Z,15.60
2019-05-26T00:14:43.362Z,15.50
2019-05-26T00:17:13.253Z,15.50
2019-05-26T00:19:42.970Z,15.50
2019-05-26T00:22:13.654Z,15.50
2019-05-26T00:24:43.386Z,15.50
2019-05-26T00:27:13.358Z,15.50
2019-05-26T00:29:43.069Z,15.40
2019-05-26T00:32:12.998Z,15.40
2019-05-26T00:34:42.709Z,15.40
2019-05-26T00:37:12.643Z,15.40
2019-05-26T00:39:42.442Z,15.30
2019-05-26T00:42:13.394Z,15.30
2019-05-26T00:44:43.239Z,15.30
2019-05-26T00:47:13.128Z,15.30
2019-05-26T00:49:42.982Z,15.30
2019-05-26T00:52:12.847Z,15.20
2019-05-26T00:54:42.810Z,15.20
2019-05-26T00:57:12.697Z,15.20
2019-05-26T00:59:42.510Z,15.20
2019-05-26T01:02:12.354Z,15.10
2019-05-26T01:04:42.249Z,15.10
2019-05-26T01:07:11.965Z,15.10
2019-05-26T01:09:41.852Z,15.10
2019-05-26T01:12:11.616Z,15.10
2019-05-26T01:14:41.484Z,15.00
2019-05-26T01:17:11.261Z,15.00
2019-05-26T01:19:41.006Z,15.00
2019-05-26T01:22:10.802Z,15.00
2019-05-26T01:24:40.530Z,15.00
2019-05-26T01:27:10.238Z,14.90
2019-05-26T01:29:39.957Z,14.90
2019-05-26T01:32:10.849Z,14.90
2019-05-26T01:34:40.685Z,14.90
2019-05-26T01:37:10.645Z,14.90
2019-05-26T01:39:40.431Z,14.90
2019-05-26T01:42:10.299Z,14.80
2019-05-26T01:44:40.165Z,14.80
2019-05-26T01:47:09.950Z,14.80
2019-05-26T01:49:39.665Z,14.80
2019-05-26T01:52:09.394Z,14.70
2019-05-26T01:54:40.954Z,14.70
2019-05-26T01:57:10.685Z,14.70
2019-05-26T01:59:40.489Z,14.70
2019-05-26T02:02:10.342Z,14.70
2019-05-26T02:04:40.223Z,14.60
2019-05-26T02:07:10.089Z,14.60
2019-05-26T02:09:41.378Z,14.60
2019-05-26T02:12:12.860Z,14.60
2019-05-26T02:14:42.648Z,14.60
2019-05-26T02:17:13.489Z,14.60
2019-05-26T02:19:43.257Z,14.60
2019-05-26T02:22:13.075Z,14.60
2019-05-26T02:24:42.860Z,14.60
2019-05-26T02:27:12.719Z,14.60
2019-05-26T02:29:42.572Z,14.60
2019-05-26T02:32:11.851Z,14.60
2019-05-26T02:34:41.545Z,14.60
2019-05-26T02:37:11.348Z,14.60
2019-05-26T02:39:41.057Z,14.60
2019-05-26T02:42:10.932Z,14.60
2019-05-26T02:44:41.266Z,14.60
2019-05-26T02:47:11.141Z,14.60
2019-05-26T02:49:40.920Z,14.60
2019-05-26T02:52:10.709Z,14.60
2019-05-26T02:54:40.411Z,14.60
2019-05-26T02:57:10.277Z,14.60
2019-05-26T02:59:40.159Z,14.60
2019-05-26T03:02:10.030Z,14.60
2019-05-26T03:04:41.107Z,14.60
2019-05-26T03:07:12.293Z,14.60
2019-05-26T03:09:43.142Z,14.60
2019-05-26T03:12:13.046Z,14.60
2019-05-26T03:14:46.159Z,14.60
2019-05-26T03:17:17.567Z,14.60
2019-05-26T03:19:50.373Z,14.60
2019-05-26T03:22:21.954Z,14.60
2019-05-26T03:24:53.922Z,14.60
2019-05-26T03:27:23.864Z,14.60
2019-05-26T03:29:53.637Z,14.60
2019-05-26T03:32:23.363Z,14.60
2019-05-26T03:34:53.166Z,14.60
2019-05-26T03:37:23.034Z,14.60
2019-05-26T03:39:52.753Z,14.60
2019-05-26T03:42:22.545Z,14.60
2019-05-26T03:44:52.408Z,14.60
2019-05-26T03:47:22.205Z,14.60
2019-05-26T03:49:51.994Z,14.60
2019-05-26T03:52:21.706Z,14.60
2019-05-26T03:54:51.431Z,14.70
2019-05-26T03:57:21.196Z,14.70
2019-05-26T03:59:50.984Z,14.70
2019-05-26T04:02:20.850Z,14.70
2019-05-26T04:04:50.669Z,14.80
2019-05-26T04:07:20.436Z,14.80
2019-05-26T04:10:03.697Z,14.90
2019-05-26T04:12:21.700Z,14.90
2019-05-26T04:14:51.501Z,14.90
2019-05-26T04:17:21.202Z,15.00
2019-05-26T04:19:50.993Z,15.00
2019-05-26T04:22:20.769Z,15.10
2019-05-26T04:24:50.576Z,15.10
2019-05-26T04:27:20.468Z,15.10
2019-05-26T04:29:50.264Z,15.20
2019-05-26T04:32:20.125Z,15.30
2019-05-26T04:34:49.920Z,15.30
2019-05-26T04:37:19.701Z,15.40
2019-05-26T04:39:49.577Z,15.40
2019-05-26T04:42:19.532Z,15.50
2019-05-26T04:44:49.253Z,15.60
2019-05-26T04:47:18.966Z,15.70
2019-05-26T04:49:48.691Z,15.70
2019-05-26T04:52:18.398Z,15.80
2019-05-26T04:54:48.201Z,15.90
2019-05-26T04:57:17.933Z,16.00
2019-05-26T04:59:47.673Z,16.10
2019-05-26T05:02:17.458Z,16.20
2019-05-26T05:04:47.274Z,16.30
2019-05-26T05:07:17.048Z,16.50
2019-05-26T05:09:46.875Z,16.60
2019-05-26T05:12:16.669Z,16.80
2019-05-26T05:14:46.508Z,17.10
2019-05-26T05:17:16.327Z,17.50
2019-05-26T05:19:46.120Z,18.00
2019-05-26T05:22:15.901Z,18.40
2019-05-26T05:24:45.626Z,18.80
2019-05-26T05:27:15.476Z,19.20
2019-05-26T05:29:45.304Z,19.40
2019-05-26T05:32:15.089Z,19.70
2019-05-26T05:34:44.821Z,19.90
2019-05-26T05:37:14.708Z,20.10
2019-05-26T05:39:44.596Z,20.40
2019-05-26T05:42:15.308Z,20.50
2019-05-26T05:44:45.088Z,20.70
2019-05-26T05:47:15.477Z,20.80
2019-05-26T05:49:45.375Z,20.80
2019-05-26T05:52:15.239Z,20.80
2019-05-26T05:54:45.022Z,20.80
2019-05-26T05:57:14.803Z,20.80
2019-05-26T05:59:44.507Z,20.70
2019-05-26T06:02:14.312Z,20.70
2019-05-26T06:04:44.196Z,20.70
2019-05-26T06:07:14.037Z,20.70
2019-05-26T06:09:43.780Z,20.70
2019-05-26T06:12:13.552Z,20.60
2019-05-26T06:14:43.323Z,20.60
2019-05-26T06:17:13.398Z,20.50
2019-05-26T06:19:43.257Z,20.50
2019-05-26T06:22:13.136Z,20.50
2019-05-26T06:24:42.954Z,20.50
2019-05-26T06:27:12.808Z,20.50
2019-05-26T06:29:57.834Z,20.50
2019-05-26T06:32:14.634Z,20.60
2019-05-26T06:34:44.581Z,20.60
2019-05-26T06:37:14.377Z,20.60
2019-05-26T06:39:44.282Z,20.70
2019-05-26T06:42:14.257Z,20.80
2019-05-26T06:44:53.017Z,21.00
2019-05-26T06:47:15.460Z,21.10
2019-05-26T06:49:45.256Z,21.20
2019-05-26T06:52:15.058Z,21.40
2019-05-26T06:54:44.888Z,21.60
2019-05-26T06:57:15.996Z,21.70
2019-05-26T06:59:45.721Z,21.80
2019-05-26T07:02:15.565Z,21.90
2019-05-26T07:04:45.293Z,22.00
2019-05-26T07:07:15.097Z,22.20
2019-05-26T07:09:44.827Z,22.30
2019-05-26T07:12:14.644Z,22.70
2019-05-26T07:14:44.393Z,23.10
2019-05-26T07:17:14.185Z,23.70
2019-05-26T07:19:44.088Z,24.20
2019-05-26T07:22:13.880Z,24.60
2019-05-26T07:24:43.690Z,24.90
2019-05-26T07:27:13.609Z,24.90
2019-05-26T07:29:43.428Z,25.00
2019-05-26T07:32:13.349Z,24.90
2019-05-26T07:34:43.227Z,24.80
2019-05-26T07:37:13.017Z,24.60
2019-05-26T07:39:42.856Z,24.50
2019-05-26T07:42:12.565Z,24.30
2019-05-26T07:44:42.355Z,24.20
2019-05-26T07:47:12.212Z,24.00
2019-05-26T07:49:41.948Z,23.80
2019-05-26T07:52:11.816Z,23.60
2019-05-26T07:54:41.801Z,23.50
2019-05-26T07:57:11.585Z,23.30
2019-05-26T07:59:41.384Z,23.10
2019-05-26T08:02:11.265Z,23.00
2019-05-26T08:04:41.129Z,22.90
2019-05-26T08:07:10.992Z,22.80
2019-05-26T08:09:40.726Z,22.70
2019-05-26T08:12:25.094Z,22.60
2019-05-26T08:14:42.065Z,22.50
2019-05-26T08:17:12.045Z,22.40
2019-05-26T08:19:41.967Z,22.40
2019-05-26T08:22:11.793Z,22.40
2019-05-26T08:24:41.626Z,22.40
2019-05-26T08:27:11.548Z,22.40
2019-05-26T08:29:41.280Z,22.40
2019-05-26T08:32:10.993Z,22.40
2019-05-26T08:34:40.798Z,22.40
2019-05-26T08:37:10.649Z,22.40
2019-05-26T08:39:40.444Z,22.40
2019-05-26T08:42:26.025Z,22.30
2019-05-26T08:44:42.725Z,22.30
2019-05-26T08:47:12.590Z,22.30
2019-05-26T08:49:42.578Z,22.30
2019-05-26T08:52:12.467Z,22.30
2019-05-26T08:54:42.268Z,22.30
2019-05-26T08:57:12.158Z,22.30
2019-05-26T08:59:42.064Z,22.30
2019-05-26T09:02:11.879Z,22.30
2019-05-26T09:04:41.633Z,22.40
2019-05-26T09:07:11.558Z,22.40
2019-05-26T09:09:41.384Z,22.40
2019-05-26T09:12:12.225Z,22.50
2019-05-26T09:14:42.005Z,22.60
2019-05-26T09:17:11.805Z,22.70
2019-05-26T09:19:41.529Z,22.90
2019-05-26T09:22:11.342Z,23.00
2019-05-26T09:24:42.182Z,23.20
2019-05-26T09:27:11.933Z,23.40
2019-05-26T09:29:41.723Z,23.60
2019-05-26T09:32:11.620Z,23.70
2019-05-26T09:34:41.449Z,23.90
2019-05-26T09:37:11.393Z,24.00
2019-05-26T09:39:41.129Z,24.20
2019-05-26T09:42:11.103Z,24.30
2019-05-26T09:44:40.928Z,24.50
2019-05-26T09:47:10.741Z,24.50
2019-05-26T09:49:40.456Z,24.60
2019-05-26T09:52:10.345Z,24.70
2019-05-26T09:54:40.165Z,24.80
2019-05-26T09:57:10.082Z,24.90
2019-05-26T09:59:40.045Z,25.00
2019-05-26T10:02:10.014Z,25.20
2019-05-26T10:04:40.901Z,25.40
2019-05-26T10:07:15.468Z,25.60
2019-05-26T10:09:42.237Z,25.80
2019-05-26T10:12:12.702Z,26.00
2019-05-26T10:14:42.565Z,26.10
2019-05-26T10:17:12.362Z,26.20
2019-05-26T10:19:42.173Z,26.30
2019-05-26T10:22:12.029Z,26.30
2019-05-26T10:24:41.911Z,26.30
2019-05-26T10:27:11.756Z,26.30
2019-05-26T10:29:41.572Z,26.40
2019-05-26T10:32:11.444Z,26.40
2019-05-26T10:34:41.368Z,26.40
2019-05-26T10:37:11.093Z,26.40
2019-05-26T10:39:44.875Z,26.40
2019-05-26T10:42:13.214Z,26.40
2019-05-26T10:44:43.016Z,26.40
2019-05-26T10:47:12.893Z,26.40
2019-05-26T10:49:42.800Z,26.40
2019-05-26T10:52:12.720Z,26.40
2019-05-26T10:54:42.461Z,26.40
2019-05-26T10:57:12.265Z,26.40
2019-05-26T10:59:41.983Z,26.40
2019-05-26T11:02:11.846Z,26.30
2019-05-26T11:04:41.585Z,26.30
2019-05-26T11:07:11.350Z,26.30
2019-05-26T11:09:41.260Z,26.30
2019-05-26T11:12:11.045Z,26.30
2019-05-26T11:14:40.837Z,26.30
2019-05-26T11:17:10.560Z,26.30
2019-05-26T11:19:40.291Z,26.40
2019-05-26T11:22:10.068Z,26.40
2019-05-26T11:24:40.945Z,26.40
2019-05-26T11:27:13.420Z,26.40
2019-05-26T11:29:43.248Z,26.40
2019-05-26T11:32:13.100Z,26.40
2019-05-26T11:34:42.976Z,26.40
2019-05-26T11:37:12.841Z,26.40
2019-05-26T11:39:42.646Z,26.30
2019-05-26T11:42:13.990Z,26.30
2019-05-26T11:44:44.115Z,26.30
2019-05-26T11:47:13.829Z,26.30
2019-05-26T11:49:43.650Z,26.20
2019-05-26T11:52:13.351Z,26.20
2019-05-26T11:54:43.170Z,26.20
2019-05-26T11:57:13.953Z,26.30
2019-05-26T11:59:47.194Z,26.30
2019-05-26T12:02:15.273Z,26.40
2019-05-26T12:04:45.137Z,26.50
2019-05-26T12:07:14.970Z,26.60
2019-05-26T12:09:44.773Z,26.60
2019-05-26T12:12:15.682Z,26.70
2019-05-26T12:14:45.385Z,26.70
2019-05-26T12:17:15.206Z,26.80
2019-05-26T12:19:45.034Z,26.80
2019-05-26T12:22:14.897Z,26.90
2019-05-26T12:24:44.613Z,26.90
2019-05-26T12:27:14.488Z,26.90
2019-05-26T12:29:44.287Z,27.00
2019-05-26T12:32:14.010Z,27.00
2019-05-26T12:34:43.729Z,27.00
2019-05-26T12:37:14.609Z,27.00
2019-05-26T12:39:44.417Z,27.00
2019-05-26T12:42:17.018Z,27.00
2019-05-26T12:44:49.588Z,27.10
2019-05-26T12:47:17.489Z,27.10
2019-05-26T12:49:47.374Z,27.10
2019-05-26T12:52:17.358Z,27.00
2019-05-26T12:54:47.136Z,27.10
2019-05-26T12:57:17.985Z,27.10
2019-05-26T12:59:47.785Z,27.10
2019-05-26T13:02:17.773Z,27.10
2019-05-26T13:04:47.585Z,27.10
2019-05-26T13:07:17.466Z,27.20
2019-05-26T13:09:47.316Z,27.20
2019-05-26T13:12:17.104Z,27.20
2019-05-26T13:14:46.890Z,27.20
2019-05-26T13:17:16.785Z,27.20
2019-05-26T13:19:46.546Z,27.20
2019-05-26T13:22:16.440Z,27.20
2019-05-26T13:24:46.177Z,27.20
2019-05-26T13:27:16.048Z,27.20
2019-05-26T13:29:45.925Z,27.10
2019-05-26T13:32:15.659Z,27.20
2019-05-26T13:34:45.444Z,27.10
2019-05-26T13:37:15.176Z,27.10
2019-05-26T13:39:44.960Z,27.10
2019-05-26T13:42:14.841Z,27.10
2019-05-26T13:44:45.695Z,27.10
2019-05-26T13:47:25.871Z,27.00
2019-05-26T13:49:46.881Z,27.00
2019-05-26T13:52:16.764Z,27.00
2019-05-26T13:54:46.548Z,27.00
2019-05-26T13:57:16.345Z,27.00
2019-05-26T13:59:46.191Z,26.90
2019-05-26T14:02:16.107Z,26.80
2019-05-26T14:04:45.934Z,26.80
2019-05-26T14:07:15.824Z,26.70
2019-05-26T14:09:45.613Z,26.70
2019-05-26T14:12:15.433Z,26.60
2019-05-26T14:14:45.304Z,26.50
2019-05-26T14:17:15.788Z,26.50
2019-05-26T14:19:48.317Z,26.50
2019-05-26T14:22:18.124Z,26.40
2019-05-26T14:24:53.690Z,26.40
2019-05-26T14:27:19.509Z,26.30
2019-05-26T14:29:49.290Z,26.30
2019-05-26T14:32:19.172Z,26.20
2019-05-26T14:34:48.871Z,26.10
2019-05-26T14:37:18.745Z,26.10
2019-05-26T14:39:50.104Z,26.10
2019-05-26T14:42:21.177Z,26.00
2019-05-26T14:44:50.935Z,26.00
2019-05-26T14:47:20.781Z,26.00
2019-05-26T14:49:50.681Z,25.90
2019-05-26T14:52:20.408Z,26.00
2019-05-26T14:54:50.216Z,25.90
2019-05-26T14:57:19.997Z,25.90
2019-05-26T14:59:49.737Z,26.00
2019-05-26T15:02:19.539Z,26.00
2019-05-26T15:04:49.368Z,26.00
2019-05-26T15:07:19.063Z,26.00
2019-05-26T15:09:48.891Z,26.00
2019-05-26T15:12:18.608Z,26.00
2019-05-26T15:14:48.335Z,26.00
2019-05-26T15:17:18.108Z,26.00
2019-05-26T15:19:47.920Z,26.00
2019-05-26T15:22:17.707Z,26.00
2019-05-26T15:24:48.553Z,26.00
2019-05-26T15:27:19.518Z,26.00
2019-05-26T15:29:49.258Z,26.00
2019-05-26T15:32:19.036Z,25.90
2019-05-26T15:34:48.795Z,25.90
2019-05-26T15:37:18.495Z,25.90
2019-05-26T15:39:48.222Z,25.90
2019-05-26T15:42:18.847Z,25.90
2019-05-26T15:44:48.720Z,25.80
2019-05-26T15:47:18.613Z,25.80
2019-05-26T15:49:48.417Z,25.80
2019-05-26T15:52:18.261Z,25.70
2019-05-26T15:54:48.060Z,25.70
2019-05-26T15:57:17.877Z,25.70
2019-05-26T15:59:47.708Z,25.70
2019-05-26T16:02:17.548Z,25.60
2019-05-26T16:04:47.276Z,25.50
2019-05-26T16:07:17.201Z,25.50
2019-05-26T16:09:46.945Z,25.40
2019-05-26T16:12:17.791Z,25.40
2019-05-26T16:14:47.650Z,25.30
2019-05-26T16:17:17.432Z,25.30
2019-05-26T16:19:47.172Z,25.20
2019-05-26T16:22:16.876Z,25.20
2019-05-26T16:24:46.681Z,25.20
2019-05-26T16:27:19.592Z,25.20
2019-05-26T16:29:48.952Z,25.10
2019-05-26T16:32:20.134Z,25.10
2019-05-26T16:34:50.107Z,25.00
2019-05-26T16:37:19.980Z,25.00
2019-05-26T16:39:49.789Z,24.90
2019-05-26T16:42:19.677Z,24.90
2019-05-26T16:44:49.408Z,24.80
2019-05-26T16:47:19.184Z,24.80
2019-05-26T16:49:48.919Z,24.80
2019-05-26T16:52:18.733Z,24.70
2019-05-26T16:54:48.545Z,24.70
2019-05-26T16:57:19.510Z,24.60
2019-05-26T16:59:49.240Z,24.60
2019-05-26T17:02:19.051Z,24.60
2019-05-26T17:04:48.778Z,24.60
2019-05-26T17:07:18.587Z,24.50
2019-05-26T17:09:48.514Z,24.50
2019-05-26T17:12:18.565Z,24.50
2019-05-26T17:14:48.274Z,24.50
2019-05-26T17:17:18.072Z,24.50
2019-05-26T17:19:47.924Z,24.50
2019-05-26T17:22:17.729Z,24.50
2019-05-26T17:24:47.444Z,24.40
2019-05-26T17:27:17.323Z,24.40
2019-05-26T17:29:47.238Z,24.40
2019-05-26T17:32:17.044Z,24.30
2019-05-26T17:34:46.823Z,24.30
2019-05-26T17:37:16.609Z,24.30
2019-05-26T17:39:46.320Z,24.30
2019-05-26T17:42:16.116Z,24.20
2019-05-26T17:44:45.979Z,24.20
2019-05-26T17:47:29.211Z,24.20
2019-05-26T17:49:47.285Z,24.20
2019-05-26T17:52:17.081Z,24.20
2019-05-26T17:54:46.808Z,24.20
2019-05-26T17:57:16.879Z,24.10
2019-05-26T17:59:46.741Z,24.10
2019-05-26T18:02:16.568Z,24.10
2019-05-26T18:04:46.458Z,24.10
2019-05-26T18:07:16.358Z,24.00
2019-05-26T18:09:46.214Z,24.00
2019-05-26T18:12:16.044Z,24.00
2019-05-26T18:14:45.769Z,24.00
2019-05-26T18:17:15.481Z,23.90
2019-05-26T18:19:45.357Z,23.90
2019-05-26T18:22:15.309Z,23.80
2019-05-26T18:24:54.863Z,23.80
2019-05-26T18:27:16.612Z,23.80
2019-05-26T18:29:46.569Z,23.80
2019-05-26T18:32:16.599Z,23.70
2019-05-26T18:34:46.624Z,23.70
2019-05-26T18:37:16.429Z,23.70
2019-05-26T18:39:46.209Z,23.70
2019-05-26T18:42:16.093Z,23.70
2019-05-26T18:44:45.801Z,23.60
2019-05-26T18:47:15.729Z,23.60
2019-05-26T18:49:45.684Z,23.50
2019-05-26T18:52:15.548Z,23.50
2019-05-26T18:54:45.440Z,23.50
2019-05-26T18:57:15.215Z,23.50
2019-05-26T18:59:45.023Z,23.50
2019-05-26T19:02:14.823Z,23.40
2019-05-26T19:04:44.557Z,23.40
2019-05-26T19:07:14.418Z,23.40
2019-05-26T19:09:44.306Z,23.40
2019-05-26T19:12:14.252Z,23.30
2019-05-26T19:14:44.117Z,23.30
2019-05-26T19:17:14.039Z,23.20
2019-05-26T19:19:43.847Z,23.20
2019-05-26T19:22:13.619Z,23.20
2019-05-26T19:24:43.445Z,23.10
2019-05-26T19:27:13.231Z,23.10
2019-05-26T19:29:43.026Z,23.10
2019-05-26T19:32:12.902Z,23.00
2019-05-26T19:34:42.637Z,23.00
2019-05-26T19:37:12.344Z,23.00
2019-05-26T19:39:42.065Z,22.90
2019-05-26T19:42:12.744Z,22.90
2019-05-26T19:44:42.608Z,22.90
2019-05-26T19:47:12.391Z,22.80
2019-05-26T19:49:42.227Z,22.80
2019-05-26T19:52:11.959Z,22.80
2019-05-26T19:54:41.848Z,22.70
2019-05-26T19:57:11.777Z,22.70
2019-05-26T19:59:41.572Z,22.70
2019-05-26T20:02:18.365Z,22.70
2019-05-26T20:04:42.941Z,22.60
2019-05-26T20:07:12.811Z,22.60
2019-05-26T20:09:42.720Z,22.60
2019-05-26T20:12:12.670Z,22.60
2019-05-26T20:14:42.990Z,22.50
2019-05-26T20:17:13.089Z,22.50
2019-05-26T20:19:42.811Z,22.50
2019-05-26T20:22:12.648Z,22.50
2019-05-26T20:24:42.608Z,22.50
2019-05-26T20:27:12.457Z,22.40
2019-05-26T20:29:42.258Z,22.40
2019-05-26T20:32:12.049Z,22.40
2019-05-26T20:34:41.819Z,22.40
2019-05-26T20:37:11.602Z,22.40
2019-05-26T20:39:41.402Z,22.30
2019-05-26T20:42:11.201Z,22.30
2019-05-26T20:44:40.920Z,22.30
2019-05-26T20:47:10.732Z,22.30
2019-05-26T20:49:45.534Z,22.20
2019-05-26T20:52:12.349Z,22.20
2019-05-26T20:54:42.143Z,22.20
2019-05-26T20:57:11.929Z,22.10
2019-05-26T20:59:41.638Z,22.10
2019-05-26T21:02:11.677Z,22.00
2019-05-26T21:04:41.601Z,22.00
2019-05-26T21:07:11.404Z,22.00
2019-05-26T21:09:41.218Z,21.90
2019-05-26T21:12:11.096Z,21.90
2019-05-26T21:14:40.897Z,21.80
2019-05-26T21:17:10.611Z,21.80
2019-05-26T21:19:40.392Z,21.80
2019-05-26T21:22:10.110Z,21.70
2019-05-26T21:24:39.908Z,21.70
2019-05-26T21:27:09.709Z,21.60
2019-05-26T21:29:40.388Z,21.60
2019-05-26T21:32:10.250Z,21.60
2019-05-26T21:34:40.066Z,21.50
2019-05-26T21:37:09.952Z,21.50
2019-05-26T21:39:39.658Z,21.50
2019-05-26T21:42:09.457Z,21.40
2019-05-26T21:44:39.350Z,21.40
2019-05-26T21:47:09.196Z,21.40
2019-05-26T21:49:38.913Z,21.40
2019-05-26T21:52:08.845Z,21.40
2019-05-26T21:54:41.183Z,21.30
2019-05-26T21:57:10.132Z,21.30
2019-05-26T21:59:40.033Z,21.30
2019-05-26T22:02:09.950Z,21.30
2019-05-26T22:04:39.757Z,21.30
2019-05-26T22:07:09.649Z,21.20
2019-05-26T22:09:39.531Z,21.20
2019-05-26T22:12:09.404Z,21.20
2019-05-26T22:14:39.212Z,21.20
2019-05-26T22:17:09.064Z,21.20
2019-05-26T22:19:38.870Z,21.20
2019-05-26T22:22:08.716Z,21.10
2019-05-26T22:24:38.541Z,21.10
2019-05-26T22:27:08.339Z,21.10
2019-05-26T22:29:38.217Z,21.10
2019-05-26T22:32:07.952Z,21.10
2019-05-26T22:34:37.813Z,21.10
2019-05-26T22:37:07.588Z,21.00
2019-05-26T22:39:37.465Z,21.00
2019-05-26T22:42:07.251Z,21.00
2019-05-26T22:44:37.160Z,21.00
2019-05-26T22:47:07.018Z,20.90
2019-05-26T22:49:36.914Z,20.90
2019-05-26T22:52:06.757Z,20.90
2019-05-26T22:54:36.513Z,20.90
2019-05-26T22:57:06.503Z,20.90
2019-05-26T22:59:36.356Z,20.90
2019-05-26T23:02:06.253Z,20.90
2019-05-26T23:04:36.033Z,20.90
2019-05-26T23:07:07.910Z,20.80
2019-05-26T23:09:37.652Z,20.80
2019-05-26T23:12:07.521Z,20.80
2019-05-26T23:14:37.340Z,20.80
2019-05-26T23:17:07.190Z,20.80
2019-05-26T23:19:37.022Z,20.80
2019-05-26T23:22:06.968Z,20.70
2019-05-26T23:24:36.861Z,20.70
2019-05-26T23:27:07.043Z,20.70
2019-05-26T23:29:36.785Z,20.70
2019-05-26T23:32:06.683Z,20.70
2019-05-26T23:34:36.449Z,20.60
2019-05-26T23:37:06.243Z,20.60
2019-05-26T23:39:36.028Z,20.60
2019-05-26T23:42:05.977Z,20.60
2019-05-26T23:44:35.810Z,20.50
2019-05-26T23:47:05.768Z,20.40
2019-05-26T23:49:35.473Z,20.40
2019-05-26T23:52:05.382Z,20.40
2019-05-26T23:54:35.212Z,20.30
2019-05-26T23:57:05.990Z,20.20
2019-05-26T23:59:35.772Z,20.20
